Terminal Aerodrome Forecast
Issued by NWS

Home | Current Version | Previous Version | Text Only | Print | Product List | Glossary On
Versions: 1 2 3 4 5 6 7 8 9 10 11 12 13 14 15 16 17 18 19 20 21 22
000
FTUS41 KOKX 260534
TAFHPN
TAF
KHPN 260534Z 2606/2706 36006KT P6SM SCT250
     FM261900 31005KT P6SM SCT050
     FM262300 29004KT P6SM BKN070
     FM270300 32005KT P6SM SCT070
      AMD NOT SKED=

USA.gov is the U.S. government's official web portal to all federal, state and local government web resources and services.